Time;durP1;ratioP1;P1;durP2;ratioP2;P2;SDS_P1;SDS_P2;PMS_P1;PMS_P2;Temp;Humidity;BMP_temperature;BMP_pressure;BME280_temperature;BME280_humidity;BME280_pressure;Samples;Min_cycle;Max_cycle;Signal;HPM_P1;HPM_P2
2023/06/25 00:01:24;;;;;;;12.38;6.95;;;25.10;69.50;;;;;;7678526;22;80807;-59
2023/06/25 00:04:25;;;;;;;9.80;6.20;;;25.10;69.60;;;;;;7677494;22;80273;-58
2023/06/25 00:07:25;;;;;;;12.75;6.68;;;25.10;69.60;;;;;;7650456;22;81313;-58
2023/06/25 00:10:26;;;;;;;16.98;6.22;;;25.10;69.70;;;;;;7677610;22;81237;-58
2023/06/25 00:13:26;;;;;;;8.55;5.65;;;25.10;69.50;;;;;;7677756;22;80597;-58
2023/06/25 00:16:29;;;;;;;9.85;6.38;;;25.10;69.60;;;;;;7677019;22;80586;-58
2023/06/25 00:19:29;;;;;;;9.68;7.18;;;25.10;69.50;;;;;;7677740;22;80182;-58
2023/06/25 00:22:30;;;;;;;11.38;6.05;;;25.10;69.50;;;;;;7677690;22;80642;-58
2023/06/25 00:25:30;;;;;;;11.73;6.28;;;25.00;69.50;;;;;;7650130;22;80071;-58
2023/06/25 00:28:31;;;;;;;9.00;6.68;;;25.10;69.40;;;;;;7677378;22;80337;-58
2023/06/25 00:31:32;;;;;;;12.13;6.40;;;25.10;69.40;;;;;;7649653;22;80394;-58
2023/06/25 00:34:40;;;;;;;7.93;6.88;;;25.10;69.60;;;;;;7649674;22;83254;-58
2023/06/25 00:37:41;;;;;;;9.30;6.68;;;25.10;69.40;;;;;;7648614;22;82178;-58
2023/06/25 00:40:42;;;;;;;9.45;6.55;;;25.10;69.70;;;;;;7650877;22;81533;-58
2023/06/25 00:43:42;;;;;;;8.82;6.45;;;25.10;69.60;;;;;;7649458;22;83014;-58
2023/06/25 00:46:43;;;;;;;10.00;6.53;;;25.10;69.30;;;;;;7646196;22;82715;-58
2023/06/25 00:49:44;;;;;;;14.05;7.65;;;25.10;69.20;;;;;;7651567;22;82538;-58
2023/06/25 00:52:44;;;;;;;14.48;7.07;;;25.10;69.10;;;;;;7650813;22;83307;-58
2023/06/25 00:55:50;;;;;;;11.40;6.85;;;25.10;69.20;;;;;;7680260;22;80468;-59
2023/06/25 00:58:54;;;;;;;9.38;6.97;;;25.10;69.30;;;;;;7653089;22;81601;-59
2023/06/25 01:01:55;;;;;;;8.95;6.57;;;25.10;69.20;;;;;;7650487;22;80510;-58
2023/06/25 01:04:57;;;;;;;10.05;7.07;;;25.10;69.20;;;;;;7678841;22;80358;-59
2023/06/25 01:07:58;;;;;;;10.98;7.50;;;25.10;69.10;;;;;;7650173;22;83420;-59
2023/06/25 01:10:58;;;;;;;13.98;7.13;;;25.00;69.00;;;;;;7640803;22;83756;-59
2023/06/25 01:13:59;;;;;;;9.10;6.90;;;25.00;69.30;;;;;;7675738;22;80766;-60
2023/06/25 01:16:59;;;;;;;9.88;6.93;;;25.00;69.10;;;;;;7648830;22;83027;-58
2023/06/25 01:20:00;;;;;;;9.10;6.95;;;25.00;69.00;;;;;;7673728;22;80288;-59
2023/06/25 01:23:01;;;;;;;8.95;6.70;;;25.00;68.80;;;;;;7674748;22;80442;-58
2023/06/25 01:26:01;;;;;;;12.32;6.82;;;24.90;68.80;;;;;;7647577;22;82046;-59
2023/06/25 01:29:02;;;;;;;9.95;6.93;;;24.90;68.80;;;;;;7677151;22;80070;-59
2023/06/25 01:32:02;;;;;;;11.50;6.95;;;25.00;68.70;;;;;;7651557;22;83162;-58
2023/06/25 01:35:04;;;;;;;10.05;7.30;;;24.90;68.90;;;;;;7679158;22;80167;-59
2023/06/25 01:38:05;;;;;;;10.13;7.28;;;24.90;68.70;;;;;;7650233;22;82631;-58
2023/06/25 01:41:05;;;;;;;9.20;7.50;;;24.90;68.70;;;;;;7651381;22;83356;-59
2023/06/25 01:44:06;;;;;;;10.93;6.53;;;24.90;68.70;;;;;;7652027;22;81227;-58
2023/06/25 01:47:06;;;;;;;10.95;6.88;;;24.90;68.80;;;;;;7679229;22;80488;-57
2023/06/25 01:50:08;;;;;;;17.30;6.75;;;24.90;68.80;;;;;;7678966;22;80674;-59
2023/06/25 01:53:09;;;;;;;13.60;7.38;;;24.90;68.80;;;;;;7678222;22;80434;-58
2023/06/25 01:56:10;;;;;;;9.75;7.25;;;24.90;68.80;;;;;;7678193;22;80411;-59
2023/06/25 01:59:10;;;;;;;9.95;6.95;;;24.90;68.80;;;;;;7651475;22;83631;-70
2023/06/25 02:02:11;;;;;;;11.23;6.70;;;24.90;68.70;;;;;;7652581;22;82085;-71
2023/06/25 02:05:11;;;;;;;10.02;7.28;;;24.90;68.80;;;;;;7680071;22;81371;-69
2023/06/25 02:08:12;;;;;;;9.32;7.43;;;24.90;69.00;;;;;;7652381;22;82839;-70
2023/06/25 02:11:13;;;;;;;9.45;7.00;;;24.90;68.90;;;;;;7652161;22;83282;-70
2023/06/25 02:14:13;;;;;;;13.10;7.50;;;24.90;68.60;;;;;;7652389;22;83732;-69
2023/06/25 02:17:14;;;;;;;8.82;6.78;;;24.90;68.70;;;;;;7651988;22;81768;-69
2023/06/25 02:20:14;;;;;;;11.70;7.03;;;24.90;68.80;;;;;;7652464;22;81819;-68
2023/06/25 02:23:15;;;;;;;10.30;6.93;;;24.90;68.70;;;;;;7678128;22;80796;-72
2023/06/25 02:26:15;;;;;;;8.63;6.57;;;24.90;68.80;;;;;;7680692;22;80417;-73
2023/06/25 02:29:16;;;;;;;9.10;6.97;;;24.90;68.50;;;;;;7651930;22;81348;-72
2023/06/25 02:32:16;;;;;;;10.13;7.32;;;24.90;68.50;;;;;;7652671;22;83098;-74
2023/06/25 02:35:17;;;;;;;9.05;6.90;;;24.90;68.50;;;;;;7678952;22;80357;-56
2023/06/25 02:38:18;;;;;;;8.63;6.78;;;24.90;68.60;;;;;;7678999;22;80225;-56
2023/06/25 02:41:18;;;;;;;10.35;7.55;;;24.90;68.60;;;;;;7678810;22;81925;-57
2023/06/25 02:44:19;;;;;;;9.05;6.90;;;24.80;68.60;;;;;;7651919;22;81723;-55
2023/06/25 02:47:19;;;;;;;11.55;6.82;;;24.90;68.60;;;;;;7678100;22;80075;-56
2023/06/25 02:50:20;;;;;;;9.65;7.32;;;24.80;68.50;;;;;;7680389;22;80325;-57
2023/06/25 02:53:22;;;;;;;9.63;6.97;;;24.90;68.50;;;;;;7649290;22;82312;-55
2023/06/25 02:56:22;;;;;;;10.20;6.82;;;24.90;68.50;;;;;;7650699;22;81964;-55
2023/06/25 02:59:23;;;;;;;11.30;6.88;;;24.90;68.50;;;;;;7677335;22;80813;-56
2023/06/25 03:02:24;;;;;;;10.27;7.40;;;24.80;68.50;;;;;;7650606;22;83359;-57
2023/06/25 03:05:24;;;;;;;11.75;7.72;;;24.80;68.50;;;;;;7652044;22;81477;-58
2023/06/25 03:08:25;;;;;;;8.88;6.85;;;24.90;68.40;;;;;;7653211;22;83016;-56
2023/06/25 03:11:25;;;;;;;12.57;8.63;;;24.80;68.40;;;;;;7652335;22;82986;-58
2023/06/25 03:14:26;;;;;;;8.60;7.00;;;24.80;68.40;;;;;;7678854;22;80325;-54
2023/06/25 03:17:26;;;;;;;10.95;6.68;;;24.80;68.40;;;;;;7652805;22;80570;-55
2023/06/25 03:20:27;;;;;;;15.85;6.53;;;24.80;68.50;;;;;;7678086;22;80648;-57
2023/06/25 03:23:27;;;;;;;8.68;6.45;;;24.80;68.30;;;;;;7652109;22;80723;-54
2023/06/25 03:26:28;;;;;;;10.65;6.72;;;24.80;68.40;;;;;;7666997;22;80466;-54
2023/06/25 03:29:29;;;;;;;10.27;6.22;;;24.80;68.50;;;;;;7648707;22;83250;-56
2023/06/25 03:32:29;;;;;;;8.75;6.57;;;24.80;68.40;;;;;;7675901;22;80494;-56
2023/06/25 03:35:30;;;;;;;7.25;6.00;;;24.80;68.30;;;;;;7647571;22;82841;-56
2023/06/25 03:38:30;;;;;;;9.07;6.60;;;24.80;68.30;;;;;;7678214;22;80736;-56
2023/06/25 03:41:32;;;;;;;8.48;5.78;;;24.80;68.40;;;;;;7648789;22;82466;-58
2023/06/25 03:44:33;;;;;;;8.32;5.97;;;24.80;68.20;;;;;;7674676;22;80750;-58
2023/06/25 03:47:33;;;;;;;9.98;6.57;;;24.80;68.80;;;;;;7649876;22;83068;-59
2023/06/25 03:50:34;;;;;;;8.80;5.38;;;24.80;68.70;;;;;;7650702;22;83289;-59
2023/06/25 03:53:35;;;;;;;7.75;6.15;;;24.80;69.00;;;;;;7678643;22;80353;-59
2023/06/25 03:56:35;;;;;;;8.82;6.65;;;24.80;68.40;;;;;;7650514;22;81498;-58
2023/06/25 03:59:36;;;;;;;15.88;6.43;;;24.90;68.30;;;;;;7678535;22;81797;-58
2023/06/25 04:02:36;;;;;;;13.50;6.47;;;24.90;68.50;;;;;;7677666;22;80212;-58
2023/06/25 04:05:37;;;;;;;9.35;6.10;;;24.90;68.50;;;;;;7651811;22;80476;-59
2023/06/25 04:08:37;;;;;;;10.95;6.20;;;24.90;68.60;;;;;;7677736;22;80196;-58
2023/06/25 04:11:38;;;;;;;8.50;6.25;;;24.90;68.70;;;;;;7651087;22;83116;-58
2023/06/25 04:14:39;;;;;;;8.00;5.90;;;24.90;68.50;;;;;;7651825;22;83350;-59
2023/06/25 04:17:40;;;;;;;8.90;5.43;;;24.90;68.80;;;;;;7655406;22;82795;-58
2023/06/25 04:20:40;;;;;;;9.90;5.32;;;24.90;69.00;;;;;;7654735;22;82319;-57
2023/06/25 04:23:41;;;;;;;6.78;5.18;;;24.90;69.30;;;;;;7682213;22;80804;-58
2023/06/25 04:26:42;;;;;;;8.45;5.65;;;24.90;69.00;;;;;;7654858;22;83148;-57
2023/06/25 04:29:45;;;;;;;8.95;5.82;;;24.90;69.20;;;;;;7654000;22;83623;-58
2023/06/25 04:32:49;;;;;;;10.30;5.63;;;24.90;69.00;;;;;;7653195;22;83605;-58
2023/06/25 04:35:50;;;;;;;17.55;5.57;;;24.90;68.50;;;;;;7654552;22;83312;-60
2023/06/25 04:38:52;;;;;;;6.00;5.40;;;24.90;68.40;;;;;;7653873;22;82969;-59
2023/06/25 04:41:55;;;;;;;8.95;5.75;;;24.90;68.40;;;;;;7635848;22;81226;-60
2023/06/25 04:44:56;;;;;;;11.52;6.22;;;24.90;68.30;;;;;;7650086;22;82237;-59
2023/06/25 04:47:56;;;;;;;7.90;6.28;;;24.90;68.30;;;;;;7651969;22;82910;-59
2023/06/25 04:50:57;;;;;;;7.38;5.85;;;24.90;68.30;;;;;;7650157;22;83244;-59
2023/06/25 04:53:57;;;;;;;9.43;5.15;;;25.00;68.50;;;;;;7676069;22;80617;-58
2023/06/25 04:56:58;;;;;;;8.27;5.65;;;25.00;68.80;;;;;;7679656;22;80495;-58
2023/06/25 04:59:59;;;;;;;9.63;5.05;;;25.10;69.00;;;;;;7678234;22;80489;-58
2023/06/25 05:02:59;;;;;;;7.78;5.43;;;25.00;68.90;;;;;;7676186;22;81015;-58
2023/06/25 05:05:59;;;;;;;6.05;4.93;;;25.00;69.40;;;;;;7678184;22;80790;-57
2023/06/25 05:09:00;;;;;;;9.02;5.18;;;25.10;69.40;;;;;;7677671;22;80675;-58
2023/06/25 05:12:01;;;;;;;9.48;4.90;;;25.10;69.40;;;;;;7677239;22;80719;-56
2023/06/25 05:15:01;;;;;;;14.43;4.88;;;25.20;69.50;;;;;;7648970;22;81849;-58
2023/06/25 05:18:02;;;;;;;5.75;5.07;;;25.20;69.30;;;;;;7677055;22;80894;-57
2023/06/25 05:21:02;;;;;;;5.13;4.60;;;25.20;69.30;;;;;;7678282;22;80136;-58
2023/06/25 05:24:06;;;;;;;9.77;5.47;;;25.30;69.40;;;;;;7677357;22;80672;-58
2023/06/25 05:27:06;;;;;;;11.45;5.45;;;25.30;69.40;;;;;;7675427;22;80748;-58
2023/06/25 05:30:07;;;;;;;6.80;4.68;;;25.30;69.40;;;;;;7673760;22;81207;-57
2023/06/25 05:33:07;;;;;;;10.45;5.50;;;25.30;69.40;;;;;;7673849;22;80663;-57
2023/06/25 05:36:08;;;;;;;9.07;5.63;;;25.30;69.90;;;;;;7676257;22;80486;-57
2023/06/25 05:39:08;;;;;;;5.57;4.70;;;25.40;70.10;;;;;;7675282;22;80353;-58
2023/06/25 05:42:09;;;;;;;9.45;5.18;;;25.40;70.10;;;;;;7676859;22;80321;-58
2023/06/25 05:45:09;;;;;;;9.50;5.32;;;25.30;71.70;;;;;;7659638;22;81092;-59
2023/06/25 05:48:10;;;;;;;7.10;5.53;;;25.40;72.00;;;;;;7658862;22;81312;-58
2023/06/25 05:51:10;;;;;;;8.05;6.07;;;25.40;72.00;;;;;;7668552;22;81273;-57
2023/06/25 05:54:11;;;;;;;10.93;6.35;;;25.40;71.50;;;;;;7668756;22;81693;-55
2023/06/25 05:57:12;;;;;;;9.98;7.72;;;25.50;70.80;;;;;;7670293;22;80551;-56
2023/06/25 06:00:12;;;;;;;12.98;8.50;;;25.40;70.40;;;;;;7671237;22;80339;-55
2023/06/25 06:03:17;;;;;;;12.77;8.00;;;25.30;70.40;;;;;;7672141;22;79917;-57
2023/06/25 06:06:18;;;;;;;12.20;8.15;;;25.30;70.10;;;;;;7645895;22;81712;-57
2023/06/25 06:09:18;;;;;;;10.55;7.50;;;25.20;70.20;;;;;;7672634;22;80486;-57
2023/06/25 06:12:19;;;;;;;13.30;7.80;;;25.20;70.10;;;;;;7672713;22;80413;-57
2023/06/25 06:15:19;;;;;;;16.17;8.65;;;25.20;69.70;;;;;;7671939;22;81161;-56
2023/06/25 06:18:20;;;;;;;12.45;8.82;;;25.20;69.20;;;;;;7644823;22;81627;-60
2023/06/25 06:21:20;;;;;;;12.95;9.55;;;25.10;69.30;;;;;;7673239;22;81196;-60
2023/06/25 06:24:21;;;;;;;15.27;9.25;;;25.00;69.40;;;;;;7673951;22;81651;-60
2023/06/25 06:27:21;;;;;;;17.92;11.23;;;24.90;69.70;;;;;;7673075;22;80656;-61
2023/06/25 06:30:22;;;;;;;16.90;12.07;;;24.60;70.10;;;;;;7676354;22;83370;-60
2023/06/25 06:33:24;;;;;;;22.50;13.68;;;24.20;70.80;;;;;;7671327;22;82735;-57
2023/06/25 06:36:24;;;;;;;21.50;11.18;;;23.50;72.60;;;;;;7671828;22;83707;-62
2023/06/25 06:39:25;;;;;;;15.88;11.45;;;23.70;73.20;;;;;;7647997;22;82704;-59
2023/06/25 06:42:25;;;;;;;16.15;11.07;;;23.80;73.10;;;;;;7675632;22;83065;-57
2023/06/25 06:45:26;;;;;;;18.17;10.52;;;23.90;73.00;;;;;;7675076;22;82974;-58
2023/06/25 06:48:26;;;;;;;27.13;16.98;;;24.10;72.70;;;;;;7673627;22;85387;-61
2023/06/25 06:51:27;;;;;;;69.25;40.63;;;24.30;71.70;;;;;;7674145;22;83323;-60
2023/06/25 06:54:27;;;;;;;111.18;60.33;;;24.40;71.10;;;;;;7673597;22;83200;-59
2023/06/25 06:57:28;;;;;;;84.85;48.63;;;24.50;69.90;;;;;;7670118;22;82808;-62
2023/06/25 07:00:29;;;;;;;90.32;49.05;;;24.50;68.90;;;;;;7673592;22;83992;-60
2023/06/25 07:03:29;;;;;;;85.05;48.15;;;24.50;68.60;;;;;;7672792;22;83333;-60
2023/06/25 07:06:30;;;;;;;121.97;68.32;;;24.50;69.00;;;;;;7673146;22;83044;-67
2023/06/25 07:09:30;;;;;;;63.78;36.40;;;24.50;69.10;;;;;;7673535;22;82930;-62
2023/06/25 07:12:31;;;;;;;57.25;32.05;;;24.50;68.70;;;;;;7671398;22;82897;-62
2023/06/25 07:15:31;;;;;;;59.53;34.33;;;24.60;69.20;;;;;;7671403;22;82916;-61
2023/06/25 07:18:32;;;;;;;103.03;59.40;;;24.60;68.60;;;;;;7670707;22;84661;-65
2023/06/25 07:21:32;;;;;;;117.45;63.30;;;24.60;69.00;;;;;;7672278;22;83355;-60
2023/06/25 07:24:33;;;;;;;57.65;32.63;;;24.40;69.80;;;;;;7642073;22;84011;-62
2023/06/25 07:27:33;;;;;;;44.75;24.48;;;24.00;70.30;;;;;;7671753;22;83016;-61
2023/06/25 07:30:34;;;;;;;26.35;16.02;;;23.80;72.00;;;;;;7670528;22;83155;-63
2023/06/25 07:33:34;;;;;;;24.80;13.43;;;23.60;72.20;;;;;;7663786;22;84120;-62
2023/06/25 07:36:35;;;;;;;16.98;12.05;;;23.50;73.00;;;;;;7667228;22;83594;-61
2023/06/25 07:39:36;;;;;;;16.70;12.00;;;23.50;73.60;;;;;;7669376;22;82814;-60
2023/06/25 07:42:36;;;;;;;16.65;10.70;;;23.40;73.40;;;;;;7669319;22;83196;-60
2023/06/25 07:45:38;;;;;;;18.17;11.40;;;23.40;73.70;;;;;;7669769;22;83412;-62
2023/06/25 07:48:39;;;;;;;15.93;10.65;;;23.80;74.10;;;;;;7668433;22;82985;-62
2023/06/25 07:51:39;;;;;;;25.23;11.68;;;24.10;72.70;;;;;;7649299;22;84442;-61
2023/06/25 07:54:40;;;;;;;17.65;10.32;;;24.40;71.80;;;;;;7662605;22;84856;-61
2023/06/25 07:57:40;;;;;;;18.60;10.10;;;24.50;71.40;;;;;;7671609;22;82701;-62
2023/06/25 08:00:41;;;;;;;14.15;10.30;;;24.60;70.90;;;;;;7672395;22;84176;-61
2023/06/25 08:03:41;;;;;;;15.43;9.55;;;24.70;70.10;;;;;;7673221;22;83454;-60
2023/06/25 08:06:42;;;;;;;14.48;9.43;;;24.50;71.00;;;;;;7675856;22;82839;-59
2023/06/25 08:09:44;;;;;;;15.98;10.32;;;24.60;70.90;;;;;;7675252;22;81714;-61
2023/06/25 08:12:45;;;;;;;15.32;10.73;;;24.60;71.30;;;;;;7647116;22;82792;-60
2023/06/25 08:15:45;;;;;;;13.48;9.25;;;24.40;70.90;;;;;;7673403;22;83178;-62
2023/06/25 08:18:46;;;;;;;17.13;9.68;;;24.60;71.60;;;;;;7676743;22;82834;-60
2023/06/25 08:21:47;;;;;;;18.85;9.70;;;24.80;71.30;;;;;;7677079;22;80493;-60
2023/06/25 08:24:47;;;;;;;11.68;8.18;;;24.80;70.80;;;;;;7650052;22;80254;-61
2023/06/25 08:27:48;;;;;;;14.05;9.45;;;25.00;71.00;;;;;;7676345;22;81189;-61
2023/06/25 08:30:48;;;;;;;13.35;9.00;;;25.00;70.10;;;;;;7673935;22;80510;-63
2023/06/25 08:33:49;;;;;;;13.30;9.73;;;24.90;71.10;;;;;;7672987;22;80633;-64
2023/06/25 08:36:49;;;;;;;17.58;9.93;;;25.10;70.50;;;;;;7674673;22;80273;-63
2023/06/25 08:39:50;;;;;;;19.80;10.98;;;25.00;70.80;;;;;;7678530;22;80471;-64
2023/06/25 08:42:50;;;;;;;12.27;8.85;;;24.90;69.70;;;;;;7672350;22;83934;-63
2023/06/25 08:45:51;;;;;;;21.20;9.60;;;24.80;70.90;;;;;;7677979;22;83005;-65
2023/06/25 08:48:52;;;;;;;16.08;9.80;;;24.90;71.80;;;;;;7678777;22;80931;-62
2023/06/25 08:51:52;;;;;;;15.07;8.85;;;25.00;71.30;;;;;;7677944;22;80089;-64
2023/06/25 08:54:53;;;;;;;16.55;9.50;;;25.00;71.00;;;;;;7677660;22;80318;-63
2023/06/25 08:57:53;;;;;;;16.52;10.02;;;24.90;70.90;;;;;;7676482;22;80181;-61
2023/06/25 09:00:54;;;;;;;15.25;10.52;;;24.90;71.60;;;;;;7672964;22;83348;-61
2023/06/25 09:03:54;;;;;;;12.27;8.63;;;25.00;71.00;;;;;;7647911;22;84325;-69
2023/06/25 09:06:55;;;;;;;16.30;9.00;;;25.30;71.10;;;;;;7675940;22;82915;-71
2023/06/25 09:09:56;;;;;;;18.50;10.00;;;25.40;70.00;;;;;;7677261;22;80228;-72
2023/06/25 09:12:56;;;;;;;13.75;8.93;;;25.50;70.30;;;;;;7672324;22;82682;-67
2023/06/25 09:15:57;;;;;;;15.88;10.02;;;25.40;69.80;;;;;;7679076;22;83798;-68
2023/06/25 09:18:57;;;;;;;16.73;9.35;;;25.40;69.70;;;;;;7671931;22;82926;-68
2023/06/25 09:21:58;;;;;;;14.65;9.32;;;25.30;70.00;;;;;;7679950;22;83232;-61
2023/06/25 09:24:58;;;;;;;17.95;8.57;;;25.50;69.80;;;;;;7679960;22;80139;-62
2023/06/25 09:27:59;;;;;;;11.38;8.18;;;25.50;67.20;;;;;;7679391;22;80552;-61
2023/06/25 09:31:00;;;;;;;10.75;7.95;;;25.40;68.20;;;;;;7679627;22;80766;-60
2023/06/25 09:34:00;;;;;;;12.25;8.40;;;25.50;67.00;;;;;;7679408;22;80164;-61
2023/06/25 09:37:01;;;;;;;13.85;8.27;;;25.60;64.80;;;;;;7678738;22;81151;-61
2023/06/25 09:40:01;;;;;;;9.48;8.10;;;25.60;66.70;;;;;;7677350;22;80632;-71
2023/06/25 09:43:05;;;;;;;11.02;8.07;;;25.70;66.30;;;;;;7678731;22;80150;-70
2023/06/25 09:46:05;;;;;;;12.13;7.82;;;25.80;66.60;;;;;;7678015;22;80903;-67
2023/06/25 09:49:09;;;;;;;10.73;7.97;;;25.80;66.70;;;;;;7678041;22;80242;-68
2023/06/25 09:52:10;;;;;;;17.00;8.60;;;25.80;65.70;;;;;;7679118;22;80788;-71
2023/06/25 09:55:10;;;;;;;18.00;9.95;;;25.80;65.10;;;;;;7676467;22;80415;-67
2023/06/25 09:58:11;;;;;;;16.45;8.30;;;25.80;65.90;;;;;;7676564;22;80758;-68
2023/06/25 10:01:11;;;;;;;18.42;8.80;;;25.80;66.20;;;;;;7675761;22;80514;-69
2023/06/25 10:04:12;;;;;;;13.73;9.02;;;25.80;66.00;;;;;;7677213;22;80510;-70
2023/06/25 10:07:12;;;;;;;10.70;8.55;;;25.90;66.10;;;;;;7679140;22;80646;-66
2023/06/25 10:10:13;;;;;;;14.02;8.30;;;25.80;65.20;;;;;;7679034;22;80277;-65
2023/06/25 10:13:13;;;;;;;20.08;8.60;;;25.80;65.00;;;;;;7678983;22;80850;-67
2023/06/25 10:16:14;;;;;;;13.07;8.98;;;25.80;64.70;;;;;;7679105;22;81029;-69
2023/06/25 10:19:14;;;;;;;19.77;9.73;;;25.80;64.90;;;;;;7678749;22;80497;-70
2023/06/25 10:22:16;;;;;;;16.55;8.35;;;25.80;64.80;;;;;;7651523;22;84790;-66
2023/06/25 10:25:16;;;;;;;16.15;9.50;;;25.80;64.70;;;;;;7670402;22;80640;-68
2023/06/25 10:28:17;;;;;;;12.95;9.07;;;25.80;64.30;;;;;;7679393;22;81200;-67
2023/06/25 10:31:17;;;;;;;19.70;8.60;;;25.70;64.10;;;;;;7683499;22;81133;-72
2023/06/25 10:34:18;;;;;;;14.00;8.63;;;25.80;64.00;;;;;;7655535;22;80515;-71
2023/06/25 10:37:18;;;;;;;11.38;8.18;;;25.70;63.60;;;;;;7684312;22;80645;-75
2023/06/25 10:40:20;;;;;;;11.73;8.57;;;25.80;64.00;;;;;;7677736;22;81358;-75
2023/06/25 10:43:20;;;;;;;11.23;8.00;;;25.80;64.50;;;;;;7682617;22;80928;-71
2023/06/25 10:46:21;;;;;;;21.73;9.15;;;25.90;64.10;;;;;;7688916;22;80216;-73
2023/06/25 10:49:21;;;;;;;10.30;7.80;;;25.90;65.00;;;;;;7682338;22;81128;-73
2023/06/25 10:52:22;;;;;;;10.80;7.97;;;25.90;64.10;;;;;;7678694;22;80911;-70
2023/06/25 10:55:22;;;;;;;12.20;8.20;;;25.90;64.10;;;;;;7676041;22;80146;-72
2023/06/25 10:58:23;;;;;;;11.38;7.82;;;25.90;63.70;;;;;;7683531;22;81097;-72
2023/06/25 11:01:23;;;;;;;12.60;7.38;;;25.90;63.40;;;;;;7681593;22;80209;-71
2023/06/25 11:04:24;;;;;;;12.20;7.38;;;25.90;62.00;;;;;;7681787;22;80169;-73
2023/06/25 11:07:27;;;;;;;12.23;6.35;;;25.90;61.10;;;;;;7684670;22;80608;-72
2023/06/25 11:10:28;;;;;;;9.55;6.53;;;25.90;60.20;;;;;;7677549;22;80487;-73
2023/06/25 11:13:28;;;;;;;10.43;7.38;;;25.90;59.90;;;;;;7680739;22;81131;-72
2023/06/25 11:16:29;;;;;;;10.40;7.20;;;25.90;60.10;;;;;;7681300;22;80720;-75
2023/06/25 11:19:30;;;;;;;10.77;6.55;;;26.00;60.40;;;;;;7680557;22;80061;-71
2023/06/25 11:22:30;;;;;;;19.02;8.25;;;26.00;59.60;;;;;;7648947;22;80752;-70
2023/06/25 11:25:31;;;;;;;20.48;8.13;;;26.00;60.40;;;;;;7680726;22;80710;-70
2023/06/25 11:28:32;;;;;;;58.10;12.35;;;26.00;60.00;;;;;;7681796;22;81210;-62
2023/06/25 11:31:32;;;;;;;26.52;8.13;;;26.10;60.80;;;;;;7674504;22;82916;-61
2023/06/25 11:34:33;;;;;;;20.38;7.22;;;26.10;60.60;;;;;;7653149;22;82822;-63
2023/06/25 11:37:33;;;;;;;19.38;7.63;;;26.10;61.00;;;;;;7677482;22;80524;-61
2023/06/25 11:40:34;;;;;;;16.23;8.45;;;26.10;60.30;;;;;;7680932;22;80223;-61
2023/06/25 11:43:34;;;;;;;11.38;7.30;;;26.20;60.20;;;;;;7679879;22;80880;-64
2023/06/25 11:46:35;;;;;;;7.93;6.80;;;26.10;59.70;;;;;;7677801;22;80282;-70
2023/06/25 11:49:36;;;;;;;10.85;6.93;;;26.10;59.90;;;;;;7680525;22;81230;-68
2023/06/25 11:52:37;;;;;;;10.52;6.55;;;26.20;59.80;;;;;;7674771;22;81068;-68
2023/06/25 11:55:38;;;;;;;6.95;6.25;;;26.20;59.90;;;;;;7679858;22;80218;-69
2023/06/25 11:58:38;;;;;;;12.27;6.38;;;26.20;57.50;;;;;;7680143;22;80949;-70
2023/06/25 12:01:39;;;;;;;8.02;5.70;;;26.10;56.80;;;;;;7681233;22;80433;-69
2023/06/25 12:04:39;;;;;;;12.63;6.00;;;26.00;56.30;;;;;;7681064;22;80885;-68
2023/06/25 12:07:40;;;;;;;8.23;6.18;;;26.10;56.50;;;;;;7676329;22;80692;-58
2023/06/25 12:10:41;;;;;;;10.82;5.70;;;26.20;56.50;;;;;;7678869;22;80126;-58
2023/06/25 12:13:41;;;;;;;10.00;5.82;;;26.10;56.70;;;;;;7676104;22;80521;-60
2023/06/25 12:16:42;;;;;;;12.07;6.07;;;26.20;57.20;;;;;;7676120;22;80435;-58
2023/06/25 12:19:42;;;;;;;13.02;6.60;;;26.30;57.20;;;;;;7677195;22;80274;-58
2023/06/25 12:22:43;;;;;;;7.50;6.25;;;26.40;57.60;;;;;;7676221;22;80123;-56
2023/06/25 12:25:43;;;;;;;10.23;5.43;;;26.50;57.80;;;;;;7649056;22;81796;-59
2023/06/25 12:28:44;;;;;;;11.93;6.15;;;26.50;57.20;;;;;;7677771;22;80766;-58
2023/06/25 12:31:44;;;;;;;14.65;6.25;;;26.50;58.00;;;;;;7677268;22;80256;-58
2023/06/25 12:34:45;;;;;;;45.60;8.02;;;26.40;58.20;;;;;;7665684;22;81127;-60
2023/06/25 12:37:45;;;;;;;14.30;6.43;;;26.40;58.10;;;;;;7656407;22;81011;-61
2023/06/25 12:40:46;;;;;;;12.85;7.55;;;26.40;57.40;;;;;;7650994;22;81335;-59
2023/06/25 12:43:47;;;;;;;65.30;36.78;;;26.40;57.40;;;;;;7657613;22;80912;-70
2023/06/25 12:46:47;;;;;;;77.72;42.90;;;26.40;57.40;;;;;;7653448;22;83456;-70
2023/06/25 12:49:48;;;;;;;75.32;46.05;;;26.40;57.40;;;;;;7656620;22;83169;-70
2023/06/25 12:52:48;;;;;;;105.70;61.50;;;26.40;57.20;;;;;;7652386;22;83439;-69
2023/06/25 12:55:49;;;;;;;119.30;72.93;;;26.40;57.20;;;;;;7640433;22;83541;-72
2023/06/25 12:58:49;;;;;;;129.02;73.30;;;26.50;57.20;;;;;;7657142;22;83820;-76
2023/06/25 13:01:55;;;;;;;165.30;95.72;;;26.50;57.10;;;;;;7659930;22;83609;-71
2023/06/25 13:04:56;;;;;;;124.82;69.07;;;26.50;57.10;;;;;;7654364;22;84005;-66
2023/06/25 13:07:56;;;;;;;118.50;64.90;;;26.50;57.00;;;;;;7649099;22;83417;-68
2023/06/25 13:10:57;;;;;;;161.30;93.13;;;26.50;57.10;;;;;;7655828;22;83510;-70
2023/06/25 13:13:57;;;;;;;164.15;91.43;;;26.50;57.00;;;;;;7658688;22;83542;-67
2023/06/25 13:16:58;;;;;;;151.93;85.15;;;26.60;56.80;;;;;;7658391;22;83339;-62
2023/06/25 13:19:58;;;;;;;98.05;51.65;;;26.60;56.10;;;;;;7675889;22;83243;-59
2023/06/25 13:22:59;;;;;;;62.28;34.88;;;26.60;55.30;;;;;;7671103;22;84647;-59
2023/06/25 13:26:00;;;;;;;59.78;32.78;;;26.60;54.10;;;;;;7676394;22;84081;-57
2023/06/25 13:29:00;;;;;;;41.00;21.15;;;26.70;55.00;;;;;;7668562;22;83205;-63
2023/06/25 13:32:01;;;;;;;26.40;14.25;;;26.70;54.90;;;;;;7675307;22;83809;-65
2023/06/25 13:35:01;;;;;;;14.13;8.70;;;26.60;54.00;;;;;;7674671;22;83059;-62
2023/06/25 13:38:02;;;;;;;11.93;7.72;;;26.60;53.40;;;;;;7646185;22;84210;-61
2023/06/25 13:41:02;;;;;;;13.32;6.75;;;26.60;53.50;;;;;;7679144;22;80958;-61
2023/06/25 13:44:03;;;;;;;9.55;6.57;;;26.60;53.50;;;;;;7676504;22;80374;-60
2023/06/25 13:47:03;;;;;;;12.13;6.63;;;26.50;53.40;;;;;;7676970;22;80868;-61
2023/06/25 13:50:04;;;;;;;11.25;6.30;;;26.50;54.10;;;;;;7674359;22;81149;-61
2023/06/25 13:53:05;;;;;;;9.77;5.68;;;26.50;54.10;;;;;;7668505;22;81836;-61
2023/06/25 13:56:05;;;;;;;11.32;5.90;;;26.50;53.30;;;;;;7680401;22;80762;-63
2023/06/25 13:59:06;;;;;;;19.40;6.22;;;26.40;52.10;;;;;;7679279;22;80306;-60
2023/06/25 14:02:06;;;;;;;8.73;5.10;;;26.50;53.20;;;;;;7679223;22;80537;-62
2023/06/25 14:05:07;;;;;;;13.30;6.07;;;26.50;53.20;;;;;;7677838;22;80775;-65
2023/06/25 14:08:07;;;;;;;10.63;5.88;;;26.60;52.50;;;;;;7680837;22;80376;-68
2023/06/25 14:11:08;;;;;;;13.88;6.60;;;26.40;51.90;;;;;;7681453;22;80845;-69
2023/06/25 14:14:09;;;;;;;8.55;6.03;;;26.50;52.10;;;;;;7680631;22;80505;-60
2023/06/25 14:17:09;;;;;;;12.55;5.75;;;26.50;52.10;;;;;;7676865;22;80187;-65
2023/06/25 14:20:10;;;;;;;10.88;6.13;;;26.50;52.30;;;;;;7678432;22;80858;-65
2023/06/25 14:23:10;;;;;;;8.55;6.22;;;26.60;52.10;;;;;;7678696;22;80154;-66
2023/06/25 14:26:11;;;;;;;7.95;6.10;;;26.50;51.90;;;;;;7670636;22;80599;-65
2023/06/25 14:29:11;;;;;;;8.70;5.72;;;26.50;51.50;;;;;;7677524;22;81100;-66
2023/06/25 14:32:12;;;;;;;11.45;5.85;;;26.40;51.20;;;;;;7678214;22;80266;-65
2023/06/25 14:35:12;;;;;;;6.55;5.32;;;26.40;51.40;;;;;;7677626;22;80308;-63
2023/06/25 14:38:13;;;;;;;8.00;5.88;;;26.40;51.70;;;;;;7678512;22;80501;-63
2023/06/25 14:41:13;;;;;;;6.80;5.50;;;26.40;51.80;;;;;;7679627;22;81077;-64
2023/06/25 14:44:14;;;;;;;8.80;5.90;;;26.30;51.90;;;;;;7678353;22;80456;-66
2023/06/25 14:47:15;;;;;;;6.93;5.32;;;26.20;51.40;;;;;;7670437;22;82853;-65
2023/06/25 14:50:15;;;;;;;8.05;5.32;;;26.20;51.10;;;;;;7653595;22;82122;-64
2023/06/25 14:53:16;;;;;;;9.60;5.05;;;26.20;51.20;;;;;;7679471;22;80132;-64
2023/06/25 14:56:16;;;;;;;9.73;5.82;;;26.20;51.40;;;;;;7677710;22;81093;-65
2023/06/25 14:59:17;;;;;;;7.75;6.25;;;26.20;51.60;;;;;;7678923;22;80410;-66
2023/06/25 15:02:17;;;;;;;8.68;5.82;;;26.10;51.60;;;;;;7678009;22;80822;-66
2023/06/25 15:05:18;;;;;;;10.93;5.53;;;26.20;52.00;;;;;;7678580;22;79985;-64
2023/06/25 15:08:18;;;;;;;8.25;5.38;;;26.20;52.40;;;;;;7679697;22;80841;-64
2023/06/25 15:11:19;;;;;;;9.57;5.72;;;26.20;52.20;;;;;;7651548;22;83304;-58
2023/06/25 15:14:22;;;;;;;10.85;5.78;;;26.20;52.00;;;;;;7679377;22;80959;-58
2023/06/25 15:17:23;;;;;;;10.30;5.75;;;26.20;52.40;;;;;;7678780;22;80382;-53
2023/06/25 15:20:24;;;;;;;9.25;5.82;;;26.20;52.40;;;;;;7679006;22;80688;-53
2023/06/25 15:23:25;;;;;;;9.80;6.30;;;26.20;53.50;;;;;;7678226;22;80271;-59
2023/06/25 15:26:25;;;;;;;7.35;5.88;;;26.20;53.60;;;;;;7677100;22;80599;-59
2023/06/25 15:29:26;;;;;;;8.55;5.63;;;26.30;53.50;;;;;;7678910;22;80280;-62